Time,TemperatureF,DewpointF,PressureIn,WindDirection,WindDirectionDegrees,WindSpeedMPH,WindSpeedGustMPH,Humidity,HourlyPrecipIn,Conditions,Clouds,dailyrainin,SoftwareType,DateUTC
2013-02-21 00:00:00,38.0,30.0,-100.00,North,-999,-999.0,-999.0,71,-99.99,,,-99.99,,2013-02-21 00:00:00,
2013-02-21 00:41:00,38.0,30.0,-100.00,North,-999,-999.0,-999.0,71,-99.99,,,-99.99,,2013-02-21 00:41:00,
2013-02-21 00:52:00,38.0,30.0,-100.00,North,-999,-999.0,-999.0,71,-99.99,,,-99.99,,2013-02-21 00:52:00,
2013-02-21 01:00:00,35.0,27.0,-100.00,North,-999,-999.0,-999.0,74,-99.99,,,-99.99,,2013-02-21 01:00:00,
2013-02-21 01:41:00,35.0,27.0,-100.00,North,-999,-999.0,-999.0,74,-99.99,,,-99.99,,2013-02-21 01:41:00,
2013-02-21 01:51:00,35.0,27.0,-100.00,North,-999,-999.0,-999.0,74,-99.99,,,-99.99,,2013-02-21 01:51:00,
2013-02-21 02:00:00,33.0,27.0,-100.00,North,-999,-999.0,-999.0,77,-99.99,,,-99.99,,2013-02-21 02:00:00,
2013-02-21 03:00:00,36.0,29.0,-100.00,North,-999,-999.0,-999.0,75,-99.99,,,-99.99,,2013-02-21 03:00:00,
2013-02-21 03:41:00,36.0,29.0,-100.00,North,-999,-999.0,-999.0,75,-99.99,,,-99.99,,2013-02-21 03:41:00,
2013-02-21 03:51:00,36.0,29.0,-100.00,North,-999,-999.0,-999.0,75,-99.99,,,-99.99,,2013-02-21 03:51:00,
2013-02-21 04:00:00,38.0,29.0,-100.00,North,-999,-999.0,-999.0,69,-99.99,,,-99.99,,2013-02-21 04:00:00,
2013-02-21 04:41:00,38.0,29.0,-100.00,North,-999,-999.0,-999.0,69,-99.99,,,-99.99,,2013-02-21 04:41:00,
2013-02-21 04:51:00,38.0,29.0,-100.00,North,-999,-999.0,-999.0,69,-99.99,,,-99.99,,2013-02-21 04:51:00,
2013-02-21 07:00:00,37.0,29.0,-100.00,North,-999,-999.0,-999.0,71,-99.99,,,-99.99,,2013-02-21 07:00:00,
2013-02-21 07:41:00,37.0,29.0,-100.00,North,-999,-999.0,-999.0,71,-99.99,,,-99.99,,2013-02-21 07:41:00,
2013-02-21 07:52:00,37.0,29.0,-100.00,North,-999,-999.0,-999.0,71,-99.99,,,-99.99,,2013-02-21 07:52:00,
2013-02-21 09:00:00,36.0,28.0,-100.00,North,-999,-999.0,-999.0,72,-99.99,,,-99.99,,2013-02-21 09:00:00,
2013-02-21 09:41:00,36.0,28.0,-100.00,North,-999,-999.0,-999.0,72,-99.99,,,-99.99,,2013-02-21 09:41:00,
2013-02-21 09:51:00,36.0,28.0,-100.00,North,-999,-999.0,-999.0,72,-99.99,,,-99.99,,2013-02-21 09:51:00,
2013-02-21 12:00:00,41.0,24.0,-100.00,North,-999,-999.0,-999.0,50,-99.99,,,-99.99,,2013-02-21 12:00:00,
2013-02-21 12:32:00,41.0,24.0,-100.00,North,-999,-999.0,-999.0,50,-99.99,,,-99.99,,2013-02-21 12:32:00,
2013-02-21 12:42:00,41.0,24.0,-100.00,North,-999,-999.0,-999.0,50,-99.99,,,-99.99,,2013-02-21 12:42:00,
2013-02-21 12:52:00,41.0,24.0,-100.00,North,-999,-999.0,-999.0,50,-99.99,,,-99.99,,2013-02-21 12:52:00,
2013-02-21 13:00:00,42.0,22.0,-100.00,North,-999,-999.0,-999.0,44,-99.99,,,-99.99,,2013-02-21 13:00:00,
2013-02-21 13:41:00,42.0,22.0,-100.00,North,-999,-999.0,-999.0,44,-99.99,,,-99.99,,2013-02-21 13:41:00,
2013-02-21 13:51:00,42.0,22.0,-100.00,North,-999,-999.0,-999.0,44,-99.99,,,-99.99,,2013-02-21 13:51:00,
2013-02-21 14:00:00,42.0,21.0,-100.00,North,-999,-999.0,-999.0,43,-99.99,,,-99.99,,2013-02-21 14:00:00,
2013-02-21 14:41:00,42.0,21.0,-100.00,North,-999,-999.0,-999.0,43,-99.99,,,-99.99,,2013-02-21 14:41:00,
2013-02-21 14:52:00,42.0,21.0,-100.00,North,-999,-999.0,-999.0,43,-99.99,,,-99.99,,2013-02-21 14:52:00,
2013-02-21 16:00:00,39.0,26.0,-100.00,North,-999,-999.0,-999.0,60,-99.99,,,-99.99,,2013-02-21 16:00:00,
2013-02-21 16:41:00,39.0,26.0,-100.00,North,-999,-999.0,-999.0,60,-99.99,,,-99.99,,2013-02-21 16:41:00,
2013-02-21 16:51:00,39.0,26.0,-100.00,North,-999,-999.0,-999.0,60,-99.99,,,-99.99,,2013-02-21 16:51:00,
2013-02-21 17:00:00,38.0,29.0,-100.00,North,-999,-999.0,-999.0,67,-99.99,,,-99.99,,2013-02-21 17:00:00,
2013-02-21 17:41:00,38.0,29.0,-100.00,North,-999,-999.0,-999.0,67,-99.99,,,-99.99,,2013-02-21 17:41:00,
2013-02-21 17:51:00,38.0,29.0,-100.00,North,-999,-999.0,-999.0,67,-99.99,,,-99.99,,2013-02-21 17:51:00,
2013-02-21 18:00:00,38.0,27.0,-100.00,North,-999,-999.0,-999.0,64,-99.99,,,-99.99,,2013-02-21 18:00:00,
2013-02-21 18:42:00,38.0,27.0,-100.00,North,-999,-999.0,-999.0,64,-99.99,,,-99.99,,2013-02-21 18:42:00,
2013-02-21 18:51:00,38.0,27.0,-100.00,North,-999,-999.0,-999.0,64,-99.99,,,-99.99,,2013-02-21 18:51:00,
2013-02-21 19:00:00,38.0,28.0,-100.00,North,-999,-999.0,-999.0,65,-99.99,,,-99.99,,2013-02-21 19:00:00,
2013-02-21 19:41:00,38.0,28.0,-100.00,North,-999,-999.0,-999.0,65,-99.99,,,-99.99,,2013-02-21 19:41:00,
2013-02-21 19:51:00,38.0,28.0,-100.00,North,-999,-999.0,-999.0,65,-99.99,,,-99.99,,2013-02-21 19:51:00,
2013-02-21 20:00:00,38.0,27.0,-100.00,North,-999,-999.0,-999.0,64,-99.99,,,-99.99,,2013-02-21 20:00:00,
2013-02-21 20:41:00,38.0,27.0,-100.00,North,-999,-999.0,-999.0,64,-99.99,,,-99.99,,2013-02-21 20:41:00,
2013-02-21 20:52:00,38.0,27.0,-100.00,North,-999,-999.0,-999.0,64,-99.99,,,-99.99,,2013-02-21 20:52:00,
2013-02-21 21:00:00,38.0,29.0,-100.00,North,-999,-999.0,-999.0,67,-99.99,,,-99.99,,2013-02-21 21:00:00,
2013-02-21 21:41:00,38.0,29.0,-100.00,North,-999,-999.0,-999.0,67,-99.99,,,-99.99,,2013-02-21 21:41:00,
2013-02-21 21:51:00,38.0,29.0,-100.00,North,-999,-999.0,-999.0,67,-99.99,,,-99.99,,2013-02-21 21:51:00,
2013-02-21 22:00:00,38.0,27.0,-100.00,North,-999,-999.0,-999.0,64,-99.99,,,-99.99,,2013-02-21 22:00:00,
2013-02-21 22:41:00,38.0,27.0,-100.00,North,-999,-999.0,-999.0,64,-99.99,,,-99.99,,2013-02-21 22:41:00,
2013-02-21 22:51:00,38.0,27.0,-100.00,North,-999,-999.0,-999.0,64,-99.99,,,-99.99,,2013-02-21 22:51:00,
2013-02-21 23:00:00,36.0,25.0,-100.00,North,-999,-999.0,-999.0,62,-99.99,,,-99.99,,2013-02-21 23:00:00,
2013-02-21 23:41:00,36.0,25.0,-100.00,North,-999,-999.0,-999.0,62,-99.99,,,-99.99,,2013-02-21 23:41:00,
2013-02-21 23:52:00,36.0,25.0,-100.00,North,-999,-999.0,-999.0,62,-99.99,,,-99.99,,2013-02-21 23:52:00,